sensor_id;sensor_type;location;lat;lon;timestamp;P1;durP1;ratioP1;P2;durP2;ratioP2
52686;SDS011;38584;49.426;8.396;2022-09-13T00:00:04;11.18;;;5.75;;
52686;SDS011;38584;49.426;8.396;2022-09-13T00:02:30;10.80;;;5.03;;
52686;SDS011;38584;49.426;8.396;2022-09-13T00:04:55;12.30;;;5.15;;
52686;SDS011;38584;49.426;8.396;2022-09-13T00:07:20;16.10;;;5.03;;
52686;SDS011;38584;49.426;8.396;2022-09-13T00:09:46;14.30;;;5.20;;
52686;SDS011;38584;49.426;8.396;2022-09-13T00:12:11;16.67;;;5.30;;
52686;SDS011;38584;49.426;8.396;2022-09-13T00:14:36;13.23;;;4.90;;
52686;SDS011;38584;49.426;8.396;2022-09-13T00:17:01;19.37;;;5.60;;
52686;SDS011;38584;49.426;8.396;2022-09-13T00:19:26;11.48;;;5.07;;
52686;SDS011;38584;49.426;8.396;2022-09-13T00:21:51;14.53;;;5.17;;
52686;SDS011;38584;49.426;8.396;2022-09-13T00:24:17;10.20;;;4.97;;
52686;SDS011;38584;49.426;8.396;2022-09-13T00:26:42;14.43;;;5.40;;
52686;SDS011;38584;49.426;8.396;2022-09-13T00:29:07;12.88;;;4.95;;
52686;SDS011;38584;49.426;8.396;2022-09-13T00:31:32;13.53;;;4.90;;
52686;SDS011;38584;49.426;8.396;2022-09-13T00:33:58;12.50;;;5.17;;
52686;SDS011;38584;49.426;8.396;2022-09-13T00:36:23;13.68;;;5.20;;
52686;SDS011;38584;49.426;8.396;2022-09-13T00:38:48;12.50;;;5.10;;
52686;SDS011;38584;49.426;8.396;2022-09-13T00:41:14;12.82;;;5.25;;
52686;SDS011;38584;49.426;8.396;2022-09-13T00:43:50;13.63;;;5.18;;
52686;SDS011;38584;49.426;8.396;2022-09-13T00:46:17;12.20;;;5.32;;
52686;SDS011;38584;49.426;8.396;2022-09-13T00:48:45;10.68;;;5.07;;
52686;SDS011;38584;49.426;8.396;2022-09-13T00:51:11;13.70;;;5.07;;
52686;SDS011;38584;49.426;8.396;2022-09-13T00:53:38;11.30;;;5.10;;
52686;SDS011;38584;49.426;8.396;2022-09-13T00:56:07;13.07;;;4.82;;
52686;SDS011;38584;49.426;8.396;2022-09-13T00:58:41;12.77;;;5.28;;
52686;SDS011;38584;49.426;8.396;2022-09-13T01:03:33;13.77;;;5.45;;
52686;SDS011;38584;49.426;8.396;2022-09-13T01:06:01;11.98;;;5.28;;
52686;SDS011;38584;49.426;8.396;2022-09-13T01:08:27;11.18;;;5.03;;
52686;SDS011;38584;49.426;8.396;2022-09-13T01:10:55;12.20;;;5.53;;
52686;SDS011;38584;49.426;8.396;2022-09-13T01:13:22;13.85;;;5.47;;
52686;SDS011;38584;49.426;8.396;2022-09-13T01:15:48;12.27;;;6.28;;
52686;SDS011;38584;49.426;8.396;2022-09-13T01:18:14;13.30;;;5.57;;
52686;SDS011;38584;49.426;8.396;2022-09-13T01:20:44;14.88;;;6.00;;
52686;SDS011;38584;49.426;8.396;2022-09-13T01:23:30;10.77;;;5.07;;
52686;SDS011;38584;49.426;8.396;2022-09-13T01:33:51;11.80;;;5.05;;
52686;SDS011;38584;49.426;8.396;2022-09-13T01:52:23;11.00;;;5.35;;
52686;SDS011;38584;49.426;8.396;2022-09-13T01:54:31;11.25;;;5.90;;
52686;SDS011;38584;49.426;8.396;2022-09-13T02:04:32;13.83;;;6.50;;
52686;SDS011;38584;49.426;8.396;2022-09-13T02:07:02;14.77;;;6.03;;
52686;SDS011;38584;49.426;8.396;2022-09-13T02:09:29;12.63;;;5.50;;
52686;SDS011;38584;49.426;8.396;2022-09-13T02:11:59;12.68;;;5.53;;
52686;SDS011;38584;49.426;8.396;2022-09-13T02:14:27;12.02;;;5.43;;
52686;SDS011;38584;49.426;8.396;2022-09-13T02:17:00;17.80;;;6.80;;
52686;SDS011;38584;49.426;8.396;2022-09-13T02:19:30;11.35;;;5.75;;
52686;SDS011;38584;49.426;8.396;2022-09-13T02:21:58;12.30;;;6.20;;
52686;SDS011;38584;49.426;8.396;2022-09-13T02:24:32;13.55;;;7.30;;
52686;SDS011;38584;49.426;8.396;2022-09-13T02:26:58;16.23;;;6.50;;
52686;SDS011;38584;49.426;8.396;2022-09-13T02:29:26;13.45;;;6.65;;
52686;SDS011;38584;49.426;8.396;2022-09-13T02:32:27;15.38;;;6.82;;
52686;SDS011;38584;49.426;8.396;2022-09-13T02:34:45;15.57;;;7.10;;
52686;SDS011;38584;49.426;8.396;2022-09-13T02:37:12;18.67;;;8.05;;
52686;SDS011;38584;49.426;8.396;2022-09-13T02:39:40;21.97;;;7.03;;
52686;SDS011;38584;49.426;8.396;2022-09-13T02:42:09;12.68;;;7.10;;
52686;SDS011;38584;49.426;8.396;2022-09-13T02:44:37;13.65;;;7.15;;
52686;SDS011;38584;49.426;8.396;2022-09-13T02:47:12;17.67;;;8.10;;
52686;SDS011;38584;49.426;8.396;2022-09-13T02:54:52;14.03;;;6.80;;
52686;SDS011;38584;49.426;8.396;2022-09-13T02:57:29;15.35;;;6.55;;
52686;SDS011;38584;49.426;8.396;2022-09-13T02:59:56;17.20;;;6.63;;
52686;SDS011;38584;49.426;8.396;2022-09-13T03:02:22;19.60;;;7.38;;
52686;SDS011;38584;49.426;8.396;2022-09-13T03:04:49;13.43;;;6.78;;
52686;SDS011;38584;49.426;8.396;2022-09-13T03:07:15;19.25;;;6.75;;
52686;SDS011;38584;49.426;8.396;2022-09-13T03:09:50;14.80;;;6.53;;
52686;SDS011;38584;49.426;8.396;2022-09-13T03:14:51;12.25;;;6.50;;
52686;SDS011;38584;49.426;8.396;2022-09-13T03:20:09;14.25;;;7.18;;
52686;SDS011;38584;49.426;8.396;2022-09-13T03:22:49;12.73;;;6.00;;
52686;SDS011;38584;49.426;8.396;2022-09-13T03:25:29;13.00;;;6.57;;
52686;SDS011;38584;49.426;8.396;2022-09-13T03:28:17;15.02;;;6.82;;
52686;SDS011;38584;49.426;8.396;2022-09-13T03:30:54;14.75;;;7.20;;
52686;SDS011;38584;49.426;8.396;2022-09-13T03:33:27;17.02;;;6.60;;
52686;SDS011;38584;49.426;8.396;2022-09-13T03:36:03;14.80;;;6.93;;
52686;SDS011;38584;49.426;8.396;2022-09-13T03:38:38;13.88;;;6.82;;
52686;SDS011;38584;49.426;8.396;2022-09-13T03:41:06;17.05;;;6.82;;
52686;SDS011;38584;49.426;8.396;2022-09-13T03:43:52;13.50;;;7.03;;
52686;SDS011;38584;49.426;8.396;2022-09-13T03:46:23;15.57;;;7.38;;
52686;SDS011;38584;49.426;8.396;2022-09-13T03:48:48;13.43;;;6.60;;
52686;SDS011;38584;49.426;8.396;2022-09-13T03:51:14;16.10;;;7.13;;
52686;SDS011;38584;49.426;8.396;2022-09-13T03:53:41;17.00;;;7.15;;
52686;SDS011;38584;49.426;8.396;2022-09-13T03:56:11;14.30;;;6.78;;
52686;SDS011;38584;49.426;8.396;2022-09-13T03:58:36;15.10;;;7.05;;
52686;SDS011;38584;49.426;8.396;2022-09-13T04:01:01;15.07;;;7.03;;
52686;SDS011;38584;49.426;8.396;2022-09-13T04:03:26;13.77;;;7.87;;
52686;SDS011;38584;49.426;8.396;2022-09-13T04:05:51;14.07;;;7.88;;
52686;SDS011;38584;49.426;8.396;2022-09-13T04:08:17;13.93;;;7.67;;
52686;SDS011;38584;49.426;8.396;2022-09-13T04:10:42;14.83;;;6.63;;
52686;SDS011;38584;49.426;8.396;2022-09-13T04:13:07;16.15;;;7.47;;
52686;SDS011;38584;49.426;8.396;2022-09-13T04:15:32;14.38;;;7.60;;
52686;SDS011;38584;49.426;8.396;2022-09-13T04:17:58;12.93;;;7.10;;
52686;SDS011;38584;49.426;8.396;2022-09-13T04:20:23;14.27;;;7.38;;
52686;SDS011;38584;49.426;8.396;2022-09-13T04:22:50;12.10;;;6.63;;
52686;SDS011;38584;49.426;8.396;2022-09-13T04:25:15;13.77;;;6.90;;
52686;SDS011;38584;49.426;8.396;2022-09-13T04:27:40;15.40;;;7.03;;
52686;SDS011;38584;49.426;8.396;2022-09-13T04:30:06;15.27;;;7.30;;
52686;SDS011;38584;49.426;8.396;2022-09-13T04:32:31;13.50;;;7.13;;
52686;SDS011;38584;49.426;8.396;2022-09-13T04:34:57;14.38;;;6.72;;
52686;SDS011;38584;49.426;8.396;2022-09-13T04:37:22;13.88;;;7.28;;
52686;SDS011;38584;49.426;8.396;2022-09-13T04:39:48;14.82;;;6.85;;
52686;SDS011;38584;49.426;8.396;2022-09-13T04:42:13;18.27;;;7.53;;
52686;SDS011;38584;49.426;8.396;2022-09-13T04:44:38;17.87;;;7.60;;
52686;SDS011;38584;49.426;8.396;2022-09-13T04:47:05;16.20;;;7.37;;
52686;SDS011;38584;49.426;8.396;2022-09-13T04:49:30;18.52;;;7.25;;
52686;SDS011;38584;49.426;8.396;2022-09-13T04:51:55;14.50;;;6.80;;
52686;SDS011;38584;49.426;8.396;2022-09-13T04:54:20;15.73;;;6.60;;
52686;SDS011;38584;49.426;8.396;2022-09-13T04:56:46;16.27;;;6.90;;
52686;SDS011;38584;49.426;8.396;2022-09-13T04:59:11;15.75;;;7.50;;
52686;SDS011;38584;49.426;8.396;2022-09-13T05:01:37;12.13;;;6.78;;
52686;SDS011;38584;49.426;8.396;2022-09-13T05:04:02;13.68;;;6.97;;
52686;SDS011;38584;49.426;8.396;2022-09-13T05:06:28;15.55;;;7.00;;
52686;SDS011;38584;49.426;8.396;2022-09-13T05:08:55;15.75;;;6.75;;
52686;SDS011;38584;49.426;8.396;2022-09-13T05:11:24;15.13;;;7.05;;
52686;SDS011;38584;49.426;8.396;2022-09-13T05:13:50;12.35;;;6.70;;
52686;SDS011;38584;49.426;8.396;2022-09-13T05:16:19;12.68;;;6.95;;
52686;SDS011;38584;49.426;8.396;2022-09-13T05:18:44;15.95;;;7.55;;
52686;SDS011;38584;49.426;8.396;2022-09-13T05:21:11;14.68;;;7.13;;
52686;SDS011;38584;49.426;8.396;2022-09-13T05:23:36;17.03;;;6.70;;
52686;SDS011;38584;49.426;8.396;2022-09-13T05:26:03;14.25;;;7.40;;
52686;SDS011;38584;49.426;8.396;2022-09-13T05:28:30;14.82;;;7.38;;
52686;SDS011;38584;49.426;8.396;2022-09-13T05:30:56;17.45;;;6.93;;
52686;SDS011;38584;49.426;8.396;2022-09-13T05:33:22;12.85;;;6.53;;
52686;SDS011;38584;49.426;8.396;2022-09-13T05:35:48;14.63;;;7.10;;
52686;SDS011;38584;49.426;8.396;2022-09-13T05:38:13;13.75;;;6.90;;
52686;SDS011;38584;49.426;8.396;2022-09-13T05:40:39;12.13;;;6.27;;
52686;SDS011;38584;49.426;8.396;2022-09-13T05:43:04;17.67;;;7.00;;
52686;SDS011;38584;49.426;8.396;2022-09-13T05:45:29;14.83;;;6.73;;
52686;SDS011;38584;49.426;8.396;2022-09-13T05:47:54;14.32;;;6.85;;
52686;SDS011;38584;49.426;8.396;2022-09-13T05:50:19;14.80;;;6.80;;
52686;SDS011;38584;49.426;8.396;2022-09-13T05:52:50;13.68;;;6.18;;
52686;SDS011;38584;49.426;8.396;2022-09-13T05:55:15;15.13;;;7.10;;
52686;SDS011;38584;49.426;8.396;2022-09-13T05:57:40;17.07;;;7.30;;
52686;SDS011;38584;49.426;8.396;2022-09-13T06:00:06;14.43;;;6.57;;
52686;SDS011;38584;49.426;8.396;2022-09-13T06:02:31;19.63;;;7.07;;
52686;SDS011;38584;49.426;8.396;2022-09-13T06:04:56;15.07;;;6.78;;
52686;SDS011;38584;49.426;8.396;2022-09-13T06:07:21;22.30;;;6.90;;
52686;SDS011;38584;49.426;8.396;2022-09-13T06:09:46;14.20;;;6.87;;
52686;SDS011;38584;49.426;8.396;2022-09-13T06:12:11;17.93;;;6.87;;
52686;SDS011;38584;49.426;8.396;2022-09-13T06:14:37;15.65;;;7.30;;
52686;SDS011;38584;49.426;8.396;2022-09-13T06:17:02;12.83;;;6.87;;
52686;SDS011;38584;49.426;8.396;2022-09-13T06:19:27;18.73;;;7.20;;
52686;SDS011;38584;49.426;8.396;2022-09-13T06:21:52;15.70;;;7.40;;
52686;SDS011;38584;49.426;8.396;2022-09-13T06:24:17;19.43;;;6.97;;
52686;SDS011;38584;49.426;8.396;2022-09-13T06:26:42;15.83;;;7.07;;
52686;SDS011;38584;49.426;8.396;2022-09-13T06:29:09;17.90;;;7.63;;
52686;SDS011;38584;49.426;8.396;2022-09-13T06:31:34;17.10;;;6.93;;
52686;SDS011;38584;49.426;8.396;2022-09-13T06:34:02;13.45;;;7.30;;
52686;SDS011;38584;49.426;8.396;2022-09-13T06:36:27;16.65;;;6.78;;
52686;SDS011;38584;49.426;8.396;2022-09-13T06:38:53;18.55;;;7.10;;
52686;SDS011;38584;49.426;8.396;2022-09-13T06:41:19;13.17;;;7.03;;
52686;SDS011;38584;49.426;8.396;2022-09-13T06:43:45;15.27;;;6.78;;
52686;SDS011;38584;49.426;8.396;2022-09-13T06:46:11;15.98;;;6.72;;
52686;SDS011;38584;49.426;8.396;2022-09-13T06:48:37;14.65;;;6.25;;
52686;SDS011;38584;49.426;8.396;2022-09-13T06:51:03;19.25;;;6.50;;
52686;SDS011;38584;49.426;8.396;2022-09-13T06:53:29;14.40;;;6.10;;
52686;SDS011;38584;49.426;8.396;2022-09-13T06:56:04;17.42;;;7.00;;
52686;SDS011;38584;49.426;8.396;2022-09-13T06:58:30;16.50;;;6.72;;
52686;SDS011;38584;49.426;8.396;2022-09-13T07:03:33;19.42;;;6.50;;
52686;SDS011;38584;49.426;8.396;2022-09-13T07:05:58;13.97;;;6.80;;
52686;SDS011;38584;49.426;8.396;2022-09-13T07:08:24;15.80;;;7.17;;
52686;SDS011;38584;49.426;8.396;2022-09-13T07:10:49;13.93;;;6.03;;
52686;SDS011;38584;49.426;8.396;2022-09-13T07:13:14;17.83;;;6.70;;
52686;SDS011;38584;49.426;8.396;2022-09-13T07:15:39;13.90;;;6.57;;
52686;SDS011;38584;49.426;8.396;2022-09-13T07:18:04;16.77;;;7.17;;
52686;SDS011;38584;49.426;8.396;2022-09-13T07:20:30;15.00;;;6.47;;
52686;SDS011;38584;49.426;8.396;2022-09-13T07:22:55;16.43;;;7.03;;
52686;SDS011;38584;49.426;8.396;2022-09-13T07:25:20;16.73;;;7.00;;
52686;SDS011;38584;49.426;8.396;2022-09-13T07:27:45;14.70;;;7.40;;
52686;SDS011;38584;49.426;8.396;2022-09-13T07:30:10;13.00;;;6.37;;
52686;SDS011;38584;49.426;8.396;2022-09-13T07:32:35;14.02;;;7.30;;
52686;SDS011;38584;49.426;8.396;2022-09-13T07:35:01;13.73;;;7.18;;
52686;SDS011;38584;49.426;8.396;2022-09-13T07:37:26;14.07;;;7.70;;
52686;SDS011;38584;49.426;8.396;2022-09-13T07:39:51;19.87;;;7.47;;
52686;SDS011;38584;49.426;8.396;2022-09-13T07:42:16;17.57;;;6.87;;
52686;SDS011;38584;49.426;8.396;2022-09-13T07:44:41;14.43;;;7.18;;
52686;SDS011;38584;49.426;8.396;2022-09-13T07:47:07;14.97;;;6.93;;
52686;SDS011;38584;49.426;8.396;2022-09-13T07:49:32;15.27;;;7.77;;
52686;SDS011;38584;49.426;8.396;2022-09-13T07:51:57;18.00;;;7.40;;
52686;SDS011;38584;49.426;8.396;2022-09-13T07:54:22;14.77;;;7.73;;
52686;SDS011;38584;49.426;8.396;2022-09-13T07:56:47;16.40;;;6.80;;
52686;SDS011;38584;49.426;8.396;2022-09-13T07:59:14;16.02;;;6.88;;
52686;SDS011;38584;49.426;8.396;2022-09-13T08:01:41;12.80;;;6.60;;
52686;SDS011;38584;49.426;8.396;2022-09-13T08:04:08;18.33;;;7.03;;
52686;SDS011;38584;49.426;8.396;2022-09-13T08:06:34;15.18;;;7.18;;
52686;SDS011;38584;49.426;8.396;2022-09-13T08:08:59;13.30;;;5.93;;
52686;SDS011;38584;49.426;8.396;2022-09-13T08:11:26;11.37;;;5.90;;
52686;SDS011;38584;49.426;8.396;2022-09-13T08:13:52;18.73;;;6.75;;
52686;SDS011;38584;49.426;8.396;2022-09-13T08:16:18;13.30;;;5.95;;
52686;SDS011;38584;49.426;8.396;2022-09-13T08:18:44;16.55;;;6.05;;
52686;SDS011;38584;49.426;8.396;2022-09-13T08:21:10;15.20;;;6.25;;
52686;SDS011;38584;49.426;8.396;2022-09-13T08:23:35;17.57;;;6.03;;
52686;SDS011;38584;49.426;8.396;2022-09-13T08:26:00;12.70;;;5.40;;
52686;SDS011;38584;49.426;8.396;2022-09-13T08:28:26;15.75;;;5.78;;
52686;SDS011;38584;49.426;8.396;2022-09-13T08:30:52;12.40;;;5.77;;
52686;SDS011;38584;49.426;8.396;2022-09-13T08:33:17;11.90;;;5.83;;
52686;SDS011;38584;49.426;8.396;2022-09-13T08:35:48;13.30;;;5.80;;
52686;SDS011;38584;49.426;8.396;2022-09-13T08:38:13;14.55;;;5.38;;
52686;SDS011;38584;49.426;8.396;2022-09-13T08:40:40;10.87;;;5.63;;
52686;SDS011;38584;49.426;8.396;2022-09-13T08:43:09;18.75;;;6.75;;
52686;SDS011;38584;49.426;8.396;2022-09-13T08:45:38;13.80;;;6.57;;
52686;SDS011;38584;49.426;8.396;2022-09-13T08:48:07;11.65;;;6.15;;
52686;SDS011;38584;49.426;8.396;2022-09-13T08:50:34;16.98;;;7.38;;
52686;SDS011;38584;49.426;8.396;2022-09-13T08:53:21;15.25;;;6.50;;
52686;SDS011;38584;49.426;8.396;2022-09-13T08:56:02;12.40;;;6.32;;
52686;SDS011;38584;49.426;8.396;2022-09-13T08:58:43;15.02;;;6.90;;
52686;SDS011;38584;49.426;8.396;2022-09-13T09:06:01;12.63;;;6.20;;
52686;SDS011;38584;49.426;8.396;2022-09-13T09:08:30;15.23;;;7.00;;
52686;SDS011;38584;49.426;8.396;2022-09-13T09:10:58;14.82;;;6.85;;
52686;SDS011;38584;49.426;8.396;2022-09-13T09:15:55;12.63;;;6.80;;
52686;SDS011;38584;49.426;8.396;2022-09-13T09:18:32;11.77;;;7.00;;
52686;SDS011;38584;49.426;8.396;2022-09-13T09:20:59;12.40;;;6.15;;
52686;SDS011;38584;49.426;8.396;2022-09-13T09:23:28;13.50;;;7.15;;
52686;SDS011;38584;49.426;8.396;2022-09-13T09:25:55;11.88;;;6.90;;
52686;SDS011;38584;49.426;8.396;2022-09-13T09:28:21;14.50;;;7.30;;
52686;SDS011;38584;49.426;8.396;2022-09-13T09:30:57;16.88;;;7.63;;
52686;SDS011;38584;49.426;8.396;2022-09-13T09:43:26;14.98;;;6.97;;
52686;SDS011;38584;49.426;8.396;2022-09-13T09:45:53;14.63;;;6.75;;
52686;SDS011;38584;49.426;8.396;2022-09-13T09:48:21;15.25;;;6.30;;
52686;SDS011;38584;49.426;8.396;2022-09-13T09:50:49;12.13;;;6.35;;
52686;SDS011;38584;49.426;8.396;2022-09-13T09:53:17;14.32;;;6.43;;
52686;SDS011;38584;49.426;8.396;2022-09-13T09:55:49;13.40;;;6.65;;
52686;SDS011;38584;49.426;8.396;2022-09-13T09:58:17;13.40;;;6.70;;
52686;SDS011;38584;49.426;8.396;2022-09-13T10:00:59;15.15;;;6.43;;
52686;SDS011;38584;49.426;8.396;2022-09-13T10:06:01;11.05;;;6.07;;
52686;SDS011;38584;49.426;8.396;2022-09-13T10:08:27;15.82;;;6.38;;
52686;SDS011;38584;49.426;8.396;2022-09-13T10:10:55;16.27;;;6.35;;
52686;SDS011;38584;49.426;8.396;2022-09-13T10:13:21;14.35;;;6.05;;
52686;SDS011;38584;49.426;8.396;2022-09-13T10:15:57;15.20;;;6.28;;
52686;SDS011;38584;49.426;8.396;2022-09-13T10:18:24;12.20;;;5.55;;
52686;SDS011;38584;49.426;8.396;2022-09-13T10:23:25;11.68;;;5.13;;
52686;SDS011;38584;49.426;8.396;2022-09-13T10:25:59;16.38;;;5.25;;
52686;SDS011;38584;49.426;8.396;2022-09-13T10:28:26;15.70;;;5.97;;
52686;SDS011;38584;49.426;8.396;2022-09-13T10:30:57;12.20;;;5.53;;
52686;SDS011;38584;49.426;8.396;2022-09-13T10:33:26;12.93;;;5.30;;
52686;SDS011;38584;49.426;8.396;2022-09-13T10:35:52;14.57;;;5.40;;
52686;SDS011;38584;49.426;8.396;2022-09-13T10:38:27;12.43;;;5.07;;
52686;SDS011;38584;49.426;8.396;2022-09-13T10:40:53;11.68;;;4.63;;
52686;SDS011;38584;49.426;8.396;2022-09-13T10:43:19;17.92;;;5.45;;
52686;SDS011;38584;49.426;8.396;2022-09-13T10:45:47;14.05;;;4.88;;
52686;SDS011;38584;49.426;8.396;2022-09-13T10:48:13;11.63;;;4.45;;
52686;SDS011;38584;49.426;8.396;2022-09-13T10:50:39;11.65;;;4.60;;
52686;SDS011;38584;49.426;8.396;2022-09-13T10:53:07;11.07;;;4.57;;
52686;SDS011;38584;49.426;8.396;2022-09-13T10:55:53;14.00;;;4.50;;
52686;SDS011;38584;49.426;8.396;2022-09-13T10:58:19;12.93;;;5.05;;
52686;SDS011;38584;49.426;8.396;2022-09-13T11:06:01;13.93;;;4.72;;
52686;SDS011;38584;49.426;8.396;2022-09-13T11:08:32;14.40;;;4.78;;
52686;SDS011;38584;49.426;8.396;2022-09-13T11:18:49;12.25;;;4.28;;
52686;SDS011;38584;49.426;8.396;2022-09-13T11:21:34;12.00;;;4.18;;
52686;SDS011;38584;49.426;8.396;2022-09-13T11:24:35;14.13;;;4.25;;
52686;SDS011;38584;49.426;8.396;2022-09-13T11:27:15;13.68;;;3.95;;
52686;SDS011;38584;49.426;8.396;2022-09-13T11:32:31;11.15;;;4.30;;
52686;SDS011;38584;49.426;8.396;2022-09-13T11:45:56;9.70;;;4.38;;
52686;SDS011;38584;49.426;8.396;2022-09-13T11:50:54;11.83;;;3.83;;
52686;SDS011;38584;49.426;8.396;2022-09-13T11:55:52;12.60;;;3.97;;
52686;SDS011;38584;49.426;8.396;2022-09-13T11:58:33;13.02;;;3.33;;
52686;SDS011;38584;49.426;8.396;2022-09-13T12:01:01;11.52;;;3.58;;
52686;SDS011;38584;49.426;8.396;2022-09-13T12:03:42;7.82;;;3.20;;
52686;SDS011;38584;49.426;8.396;2022-09-13T12:08:36;10.70;;;2.88;;
52686;SDS011;38584;49.426;8.396;2022-09-13T12:11:09;7.28;;;2.88;;
52686;SDS011;38584;49.426;8.396;2022-09-13T12:13:36;8.52;;;2.85;;
52686;SDS011;38584;49.426;8.396;2022-09-13T12:16:05;10.43;;;3.05;;
52686;SDS011;38584;49.426;8.396;2022-09-13T12:18:33;9.00;;;3.00;;
52686;SDS011;38584;49.426;8.396;2022-09-13T12:21:07;9.25;;;3.15;;
52686;SDS011;38584;49.426;8.396;2022-09-13T12:23:45;9.75;;;3.05;;
52686;SDS011;38584;49.426;8.396;2022-09-13T12:26:19;9.43;;;3.13;;
52686;SDS011;38584;49.426;8.396;2022-09-13T12:28:47;11.25;;;3.70;;
52686;SDS011;38584;49.426;8.396;2022-09-13T12:31:17;10.38;;;3.50;;
52686;SDS011;38584;49.426;8.396;2022-09-13T12:33:44;13.90;;;3.00;;
52686;SDS011;38584;49.426;8.396;2022-09-13T12:46:31;21.50;;;3.80;;
52686;SDS011;38584;49.426;8.396;2022-09-13T13:01:47;9.82;;;3.05;;
52686;SDS011;38584;49.426;8.396;2022-09-13T13:04:23;16.15;;;3.00;;
52686;SDS011;38584;49.426;8.396;2022-09-13T13:06:53;8.80;;;2.85;;
52686;SDS011;38584;49.426;8.396;2022-09-13T13:11:46;7.88;;;2.70;;
52686;SDS011;38584;49.426;8.396;2022-09-13T13:19:41;7.15;;;2.50;;
52686;SDS011;38584;49.426;8.396;2022-09-13T13:24:50;6.80;;;2.60;;
52686;SDS011;38584;49.426;8.396;2022-09-13T13:27:31;12.50;;;2.43;;
52686;SDS011;38584;49.426;8.396;2022-09-13T13:30:33;8.02;;;2.60;;
52686;SDS011;38584;49.426;8.396;2022-09-13T13:33:03;8.75;;;2.75;;
52686;SDS011;38584;49.426;8.396;2022-09-13T13:35:29;7.95;;;2.20;;
52686;SDS011;38584;49.426;8.396;2022-09-13T13:38:13;4.65;;;2.05;;
52686;SDS011;38584;49.426;8.396;2022-09-13T13:40:39;8.65;;;2.17;;
52686;SDS011;38584;49.426;8.396;2022-09-13T13:43:14;9.98;;;2.25;;
52686;SDS011;38584;49.426;8.396;2022-09-13T13:45:42;5.40;;;2.10;;
52686;SDS011;38584;49.426;8.396;2022-09-13T13:48:33;6.07;;;2.22;;
52686;SDS011;38584;49.426;8.396;2022-09-13T13:51:12;8.13;;;2.28;;
52686;SDS011;38584;49.426;8.396;2022-09-13T13:53:40;10.20;;;2.20;;
52686;SDS011;38584;49.426;8.396;2022-09-13T13:58:54;9.10;;;2.05;;
52686;SDS011;38584;49.426;8.396;2022-09-13T14:01:27;8.23;;;2.17;;
52686;SDS011;38584;49.426;8.396;2022-09-13T14:14:22;7.40;;;2.42;;
52686;SDS011;38584;49.426;8.396;2022-09-13T14:16:59;10.77;;;2.55;;
52686;SDS011;38584;49.426;8.396;2022-09-13T14:19:28;7.28;;;2.20;;
52686;SDS011;38584;49.426;8.396;2022-09-13T14:27:10;5.18;;;2.03;;
52686;SDS011;38584;49.426;8.396;2022-09-13T14:29:37;8.10;;;2.20;;
52686;SDS011;38584;49.426;8.396;2022-09-13T14:32:06;8.75;;;2.50;;
52686;SDS011;38584;49.426;8.396;2022-09-13T14:34:35;8.73;;;2.13;;
52686;SDS011;38584;49.426;8.396;2022-09-13T14:37:03;7.43;;;2.50;;
52686;SDS011;38584;49.426;8.396;2022-09-13T14:39:29;9.40;;;2.50;;
52686;SDS011;38584;49.426;8.396;2022-09-13T14:42:13;6.57;;;2.17;;
52686;SDS011;38584;49.426;8.396;2022-09-13T14:44:42;9.15;;;2.42;;
52686;SDS011;38584;49.426;8.396;2022-09-13T14:47:42;7.65;;;2.30;;
52686;SDS011;38584;49.426;8.396;2022-09-13T14:50:04;9.20;;;2.30;;
52686;SDS011;38584;49.426;8.396;2022-09-13T14:52:33;8.05;;;2.30;;
52686;SDS011;38584;49.426;8.396;2022-09-13T14:55:04;6.13;;;2.20;;
52686;SDS011;38584;49.426;8.396;2022-09-13T14:57:31;7.88;;;2.25;;
52686;SDS011;38584;49.426;8.396;2022-09-13T14:59:59;4.35;;;2.08;;
52686;SDS011;38584;49.426;8.396;2022-09-13T15:02:26;10.05;;;2.13;;
52686;SDS011;38584;49.426;8.396;2022-09-13T15:04:54;10.68;;;2.47;;
52686;SDS011;38584;49.426;8.396;2022-09-13T15:07:27;6.70;;;2.30;;
52686;SDS011;38584;49.426;8.396;2022-09-13T15:09:56;8.97;;;2.50;;
52686;SDS011;38584;49.426;8.396;2022-09-13T15:12:24;7.35;;;2.47;;
52686;SDS011;38584;49.426;8.396;2022-09-13T15:15:12;7.28;;;2.30;;
52686;SDS011;38584;49.426;8.396;2022-09-13T15:17:52;8.07;;;2.35;;
52686;SDS011;38584;49.426;8.396;2022-09-13T15:20:18;6.43;;;2.20;;
52686;SDS011;38584;49.426;8.396;2022-09-13T15:22:43;12.32;;;2.25;;
52686;SDS011;38584;49.426;8.396;2022-09-13T15:27:46;15.35;;;2.40;;
52686;SDS011;38584;49.426;8.396;2022-09-13T15:30:22;12.00;;;2.33;;
52686;SDS011;38584;49.426;8.396;2022-09-13T15:32:48;9.10;;;2.33;;
52686;SDS011;38584;49.426;8.396;2022-09-13T15:35:17;8.68;;;2.22;;
52686;SDS011;38584;49.426;8.396;2022-09-13T15:37:45;7.72;;;2.42;;
52686;SDS011;38584;49.426;8.396;2022-09-13T15:40:19;10.80;;;2.40;;
52686;SDS011;38584;49.426;8.396;2022-09-13T15:42:45;11.68;;;2.70;;
52686;SDS011;38584;49.426;8.396;2022-09-13T15:45:11;9.95;;;2.70;;
52686;SDS011;38584;49.426;8.396;2022-09-13T15:47:37;7.05;;;2.42;;
52686;SDS011;38584;49.426;8.396;2022-09-13T15:50:02;12.03;;;3.10;;
52686;SDS011;38584;49.426;8.396;2022-09-13T15:52:28;14.68;;;2.50;;
52686;SDS011;38584;49.426;8.396;2022-09-13T15:54:53;9.17;;;3.00;;
52686;SDS011;38584;49.426;8.396;2022-09-13T15:57:20;6.90;;;2.57;;
52686;SDS011;38584;49.426;8.396;2022-09-13T15:59:46;9.73;;;2.63;;
52686;SDS011;38584;49.426;8.396;2022-09-13T16:02:22;7.00;;;2.30;;
52686;SDS011;38584;49.426;8.396;2022-09-13T16:04:47;10.68;;;2.63;;
52686;SDS011;38584;49.426;8.396;2022-09-13T16:07:13;8.32;;;2.55;;
52686;SDS011;38584;49.426;8.396;2022-09-13T16:09:38;15.95;;;2.60;;
52686;SDS011;38584;49.426;8.396;2022-09-13T16:12:04;8.23;;;2.40;;
52686;SDS011;38584;49.426;8.396;2022-09-13T16:14:29;8.60;;;2.30;;
52686;SDS011;38584;49.426;8.396;2022-09-13T16:16:54;10.90;;;2.43;;
52686;SDS011;38584;49.426;8.396;2022-09-13T16:19:20;8.33;;;2.43;;
52686;SDS011;38584;49.426;8.396;2022-09-13T16:21:46;14.27;;;2.90;;
52686;SDS011;38584;49.426;8.396;2022-09-13T16:24:11;7.93;;;2.40;;
52686;SDS011;38584;49.426;8.396;2022-09-13T16:26:36;9.68;;;2.78;;
52686;SDS011;38584;49.426;8.396;2022-09-13T16:29:02;16.65;;;3.92;;
52686;SDS011;38584;49.426;8.396;2022-09-13T16:31:27;10.90;;;3.05;;
52686;SDS011;38584;49.426;8.396;2022-09-13T16:33:52;10.90;;;3.63;;
52686;SDS011;38584;49.426;8.396;2022-09-13T16:36:18;17.27;;;2.95;;
52686;SDS011;38584;49.426;8.396;2022-09-13T16:38:43;9.73;;;2.90;;
52686;SDS011;38584;49.426;8.396;2022-09-13T16:41:08;10.70;;;2.40;;
52686;SDS011;38584;49.426;8.396;2022-09-13T16:43:33;23.90;;;4.20;;
52686;SDS011;38584;49.426;8.396;2022-09-13T16:46:04;18.83;;;3.10;;
52686;SDS011;38584;49.426;8.396;2022-09-13T16:48:29;12.40;;;2.90;;
52686;SDS011;38584;49.426;8.396;2022-09-13T16:50:59;15.37;;;3.10;;
52686;SDS011;38584;49.426;8.396;2022-09-13T16:53:25;21.17;;;3.70;;
52686;SDS011;38584;49.426;8.396;2022-09-13T16:55:50;22.87;;;4.47;;
52686;SDS011;38584;49.426;8.396;2022-09-13T16:58:15;12.70;;;4.00;;
52686;SDS011;38584;49.426;8.396;2022-09-13T17:00:42;17.33;;;4.33;;
52686;SDS011;38584;49.426;8.396;2022-09-13T17:03:07;12.85;;;4.13;;
52686;SDS011;38584;49.426;8.396;2022-09-13T17:05:32;14.00;;;4.20;;
52686;SDS011;38584;49.426;8.396;2022-09-13T17:07:57;14.33;;;3.90;;
52686;SDS011;38584;49.426;8.396;2022-09-13T17:10:22;17.80;;;4.73;;
52686;SDS011;38584;49.426;8.396;2022-09-13T17:12:48;15.67;;;4.33;;
52686;SDS011;38584;49.426;8.396;2022-09-13T17:15:13;15.85;;;4.35;;
52686;SDS011;38584;49.426;8.396;2022-09-13T17:17:38;14.98;;;4.22;;
52686;SDS011;38584;49.426;8.396;2022-09-13T17:20:04;17.27;;;4.43;;